Time;durP1;ratioP1;P1;durP2;ratioP2;P2;SDS_P1;SDS_P2;PMS_P1;PMS_P2;Temp;Humidity;BMP_temperature;BMP_pressure;BME280_temperature;BME280_humidity;BME280_pressure;Samples;Min_cycle;Max_cycle;Signal;HPM_P1;HPM_P2
2023/02/04 00:00:13;;;;;;;0.90;0.90;;;5.00;99.90;;;;;;5105995;28;20209;-71
2023/02/04 00:02:40;;;;;;;0.90;0.90;;;5.00;99.90;;;;;;5105892;28;20194;-71
2023/02/04 00:05:08;;;;;;;0.90;0.90;;;5.00;99.90;;;;;;5106065;28;20228;-71
2023/02/04 00:07:35;;;;;;;1.10;1.00;;;5.00;99.90;;;;;;5105475;28;20212;-70
2023/02/04 00:10:02;;;;;;;0.93;0.90;;;5.00;99.90;;;;;;5109039;27;20212;-70
2023/02/04 00:12:29;;;;;;;0.73;0.73;;;5.00;99.90;;;;;;5126466;27;20754;-71
2023/02/04 00:14:56;;;;;;;0.87;0.87;;;5.00;99.90;;;;;;5126688;27;20290;-71
2023/02/04 00:17:24;;;;;;;0.80;0.80;;;5.00;99.90;;;;;;5126690;28;20774;-71
2023/02/04 00:19:51;;;;;;;1.40;1.30;;;5.00;99.90;;;;;;5109706;28;20947;-71
2023/02/04 00:22:19;;;;;;;0.80;0.80;;;5.00;99.90;;;;;;5105966;28;20202;-71
2023/02/04 00:24:48;;;;;;;0.90;0.90;;;5.00;99.90;;;;;;5114624;28;20287;-71
2023/02/04 00:27:16;;;;;;;0.80;0.80;;;5.00;99.90;;;;;;5126500;27;20205;-71
2023/02/04 00:29:43;;;;;;;1.10;1.00;;;5.00;99.90;;;;;;5125798;27;20312;-71
2023/02/04 00:32:10;;;;;;;1.30;1.10;;;5.00;99.90;;;;;;5118762;27;20233;-71
2023/02/04 00:34:38;;;;;;;1.00;0.90;;;5.00;99.90;;;;;;5111570;27;20316;-71
2023/02/04 00:37:05;;;;;;;0.87;0.87;;;4.90;99.90;;;;;;5113174;27;20582;-70
2023/02/04 00:39:32;;;;;;;1.23;1.00;;;4.90;99.90;;;;;;5118538;27;20263;-71
2023/02/04 00:41:59;;;;;;;1.00;1.00;;;4.90;99.90;;;;;;5112436;27;20240;-72
2023/02/04 00:44:26;;;;;;;0.60;0.60;;;4.90;99.90;;;;;;5112092;28;20301;-71
2023/02/04 00:46:52;;;;;;;1.03;0.97;;;4.90;99.90;;;;;;5112041;28;20739;-69
2023/02/04 00:49:19;;;;;;;1.27;0.80;;;4.90;99.90;;;;;;5111924;28;20688;-70
2023/02/04 00:51:48;;;;;;;0.80;0.80;;;4.90;99.90;;;;;;5119212;27;20289;-70
2023/02/04 00:54:15;;;;;;;1.53;0.80;;;4.90;99.90;;;;;;5132289;27;20728;-70
2023/02/04 00:56:42;;;;;;;0.73;0.70;;;4.90;99.90;;;;;;5132368;27;20302;-70
2023/02/04 00:59:09;;;;;;;0.70;0.70;;;4.90;99.90;;;;;;5132135;27;20329;-70
2023/02/04 01:01:37;;;;;;;1.27;0.87;;;4.80;99.90;;;;;;5132158;27;20347;-70
2023/02/04 01:04:04;;;;;;;0.80;0.80;;;4.80;99.90;;;;;;5132577;27;20256;-70
2023/02/04 01:06:31;;;;;;;0.90;0.90;;;4.70;99.90;;;;;;5132133;27;20639;-70
2023/02/04 01:09:00;;;;;;;1.90;0.87;;;4.70;99.90;;;;;;5132294;27;20289;-70
2023/02/04 01:11:27;;;;;;;1.00;1.00;;;4.60;99.90;;;;;;5151142;27;20217;-70
2023/02/04 01:13:54;;;;;;;0.70;0.67;;;4.60;99.90;;;;;;5151791;27;20886;-70
2023/02/04 01:16:21;;;;;;;0.70;0.70;;;4.60;99.90;;;;;;5133316;27;20583;-70
2023/02/04 01:18:47;;;;;;;0.80;0.80;;;4.60;99.90;;;;;;5131150;27;21053;-70
2023/02/04 01:21:14;;;;;;;0.70;0.70;;;4.50;99.90;;;;;;5130228;27;20605;-71
2023/02/04 01:23:41;;;;;;;1.27;0.90;;;4.50;99.90;;;;;;5110932;28;20622;-70
2023/02/04 01:26:10;;;;;;;2.40;1.00;;;4.50;99.90;;;;;;5111439;28;20253;-71
2023/02/04 01:28:36;;;;;;;1.77;0.77;;;4.50;99.90;;;;;;5111103;28;20293;-71
2023/02/04 01:31:03;;;;;;;1.90;0.90;;;4.50;99.90;;;;;;5114252;27;20289;-71
2023/02/04 01:33:30;;;;;;;0.80;0.60;;;4.40;99.90;;;;;;5110680;28;21038;-71
2023/02/04 01:35:57;;;;;;;0.77;0.77;;;4.40;99.90;;;;;;5126872;27;21010;-71
2023/02/04 01:38:24;;;;;;;0.70;0.60;;;4.40;99.90;;;;;;5131332;27;20320;-71
2023/02/04 01:40:51;;;;;;;0.77;0.73;;;4.40;99.90;;;;;;5144994;27;20327;-71
2023/02/04 01:43:21;;;;;;;1.93;0.90;;;4.40;99.90;;;;;;5131760;27;20663;-71
2023/02/04 01:45:48;;;;;;;1.43;0.80;;;4.40;99.90;;;;;;5131208;27;20212;-72
2023/02/04 01:48:19;;;;;;;0.60;0.60;;;4.40;99.90;;;;;;5131178;27;20288;-71
2023/02/04 01:50:46;;;;;;;0.60;0.60;;;4.30;99.90;;;;;;5110503;28;20198;-71
2023/02/04 01:53:14;;;;;;;1.23;0.80;;;4.30;99.90;;;;;;5110571;28;20756;-71
2023/02/04 01:55:41;;;;;;;1.70;0.50;;;4.30;99.90;;;;;;5110813;28;20314;-71
2023/02/04 01:58:10;;;;;;;0.50;0.50;;;4.20;99.90;;;;;;5110410;28;20340;-69
2023/02/04 02:00:39;;;;;;;0.50;0.50;;;4.20;99.90;;;;;;5110510;28;20241;-70
2023/02/04 02:03:09;;;;;;;0.53;0.40;;;4.20;99.90;;;;;;5118541;27;20621;-70
2023/02/04 02:05:40;;;;;;;0.60;0.60;;;4.20;99.90;;;;;;5131305;27;20210;-70
2023/02/04 02:08:08;;;;;;;0.67;0.60;;;4.20;99.90;;;;;;5130955;27;20288;-69
2023/02/04 02:10:37;;;;;;;2.07;0.57;;;4.20;99.90;;;;;;5118952;27;20296;-70
2023/02/04 02:13:05;;;;;;;0.60;0.40;;;4.20;99.90;;;;;;5110904;27;20647;-70
2023/02/04 02:15:31;;;;;;;0.67;0.60;;;4.20;99.90;;;;;;5115347;27;20739;-69
2023/02/04 02:18:00;;;;;;;0.43;0.43;;;4.20;99.90;;;;;;5130518;27;20308;-69
2023/02/04 02:20:28;;;;;;;1.37;0.70;;;4.10;99.90;;;;;;5130367;27;20253;-68
2023/02/04 02:23:02;;;;;;;1.23;1.00;;;4.10;99.90;;;;;;5122240;27;20653;-69
2023/02/04 02:25:30;;;;;;;0.83;0.60;;;4.10;99.90;;;;;;5118180;27;20285;-70
2023/02/04 02:27:58;;;;;;;1.23;0.40;;;4.10;99.90;;;;;;5130825;27;20216;-70
2023/02/04 02:30:26;;;;;;;1.67;0.90;;;4.10;99.90;;;;;;5130663;27;20197;-70
2023/02/04 02:32:54;;;;;;;1.07;0.63;;;4.10;99.90;;;;;;5118001;27;20246;-71
2023/02/04 02:35:21;;;;;;;1.57;0.47;;;4.10;99.90;;;;;;5130737;27;20215;-70
2023/02/04 02:37:48;;;;;;;1.13;0.87;;;4.10;99.90;;;;;;5129843;27;20236;-70
2023/02/04 02:40:15;;;;;;;1.43;0.60;;;4.10;99.90;;;;;;5139527;27;20204;-70
2023/02/04 02:42:47;;;;;;;1.20;0.50;;;4.00;99.90;;;;;;5129328;27;20292;-70
2023/02/04 02:45:20;;;;;;;0.63;0.53;;;4.00;99.90;;;;;;5129941;27;20225;-70
2023/02/04 02:47:47;;;;;;;0.60;0.60;;;4.00;99.90;;;;;;5130249;27;20274;-70
2023/02/04 02:50:19;;;;;;;0.60;0.60;;;4.00;99.90;;;;;;5130588;27;20224;-70
2023/02/04 02:52:47;;;;;;;0.97;0.70;;;4.00;99.90;;;;;;5118295;27;20937;-70
2023/02/04 02:55:16;;;;;;;0.73;0.60;;;3.90;99.90;;;;;;5109805;28;20289;-71
2023/02/04 02:57:45;;;;;;;0.70;0.53;;;3.90;99.90;;;;;;5108885;28;20680;-70
2023/02/04 03:00:17;;;;;;;0.60;0.60;;;3.90;99.90;;;;;;5109690;28;20186;-70
2023/02/04 03:02:45;;;;;;;0.70;0.60;;;3.90;99.90;;;;;;5109891;27;20465;-71
2023/02/04 03:05:13;;;;;;;0.60;0.60;;;3.80;99.90;;;;;;5109678;28;20212;-70
2023/02/04 03:07:40;;;;;;;2.00;0.60;;;3.80;99.90;;;;;;5111338;27;20230;-70
2023/02/04 03:10:07;;;;;;;0.53;0.53;;;3.80;99.90;;;;;;5122449;27;20642;-70
2023/02/04 03:12:34;;;;;;;0.73;0.73;;;3.80;99.90;;;;;;5117855;27;20283;-70
2023/02/04 03:15:04;;;;;;;0.60;0.60;;;3.80;99.90;;;;;;5128881;27;20292;-71
2023/02/04 03:17:31;;;;;;;0.40;0.40;;;3.80;99.90;;;;;;5119863;27;20201;-70
2023/02/04 03:19:58;;;;;;;0.43;0.40;;;3.80;99.90;;;;;;5129764;27;21172;-70
2023/02/04 03:22:25;;;;;;;1.07;0.50;;;3.70;99.90;;;;;;5122371;27;20198;-71
2023/02/04 03:24:52;;;;;;;1.67;0.67;;;3.70;99.90;;;;;;5109295;28;20248;-71
2023/02/04 03:27:20;;;;;;;0.83;0.40;;;3.70;99.90;;;;;;5109442;28;20206;-70
2023/02/04 03:29:46;;;;;;;0.90;0.70;;;3.70;99.90;;;;;;5108829;28;20651;-70
2023/02/04 03:32:15;;;;;;;0.70;0.70;;;3.70;99.90;;;;;;5113560;27;20291;-70
2023/02/04 03:34:42;;;;;;;1.80;0.67;;;3.70;99.90;;;;;;5129543;27;20250;-69
2023/02/04 03:37:09;;;;;;;2.17;0.60;;;3.70;99.90;;;;;;5128726;27;20683;-70
2023/02/04 03:39:36;;;;;;;2.07;0.50;;;3.70;99.90;;;;;;5122967;27;20593;-70
2023/02/04 03:42:02;;;;;;;0.63;0.63;;;3.60;99.90;;;;;;5108802;28;20238;-71
2023/02/04 03:44:29;;;;;;;0.63;0.63;;;3.60;99.90;;;;;;5108813;28;20313;-72
2023/02/04 03:46:56;;;;;;;1.07;0.77;;;3.60;99.90;;;;;;5108721;28;20285;-70
2023/02/04 03:49:24;;;;;;;1.53;0.73;;;3.60;99.90;;;;;;5125174;27;20292;-70
2023/02/04 03:51:51;;;;;;;1.50;0.70;;;3.60;99.90;;;;;;5128712;27;20304;-69
2023/02/04 03:54:18;;;;;;;2.53;0.50;;;3.60;99.90;;;;;;5128953;27;20507;-69
2023/02/04 03:56:45;;;;;;;0.73;0.60;;;3.50;99.90;;;;;;5128941;27;20202;-69
2023/02/04 03:59:12;;;;;;;0.60;0.60;;;3.50;99.90;;;;;;5128231;27;20241;-70
2023/02/04 04:01:39;;;;;;;1.13;0.50;;;3.50;99.90;;;;;;5128729;27;20296;-69
2023/02/04 04:04:06;;;;;;;0.90;0.53;;;3.50;99.90;;;;;;5124990;27;20201;-69
2023/02/04 04:06:34;;;;;;;0.87;0.50;;;3.50;99.90;;;;;;5107221;28;20304;-69
2023/02/04 04:09:01;;;;;;;1.27;0.70;;;3.40;99.90;;;;;;5107857;28;20623;-69
2023/02/04 04:11:28;;;;;;;0.93;0.50;;;3.50;99.90;;;;;;5143560;27;20208;-69
2023/02/04 04:13:54;;;;;;;1.07;0.57;;;3.40;99.90;;;;;;5116761;27;20289;-69
2023/02/04 04:16:21;;;;;;;1.23;0.57;;;3.40;99.90;;;;;;5109162;28;20208;-70
2023/02/04 04:18:48;;;;;;;0.63;0.40;;;3.40;99.90;;;;;;5129019;27;20319;-70
2023/02/04 04:21:15;;;;;;;1.80;0.60;;;3.40;99.90;;;;;;5128862;28;20276;-70
2023/02/04 04:23:43;;;;;;;2.00;0.80;;;3.40;99.90;;;;;;5118631;28;20695;-70
2023/02/04 04:26:10;;;;;;;0.40;0.40;;;3.40;99.90;;;;;;5108164;28;20227;-70
2023/02/04 04:28:37;;;;;;;0.73;0.50;;;3.40;99.90;;;;;;5107772;28;20238;-70
2023/02/04 04:31:04;;;;;;;2.10;0.83;;;3.40;99.90;;;;;;5108501;28;20651;-71
2023/02/04 04:33:31;;;;;;;0.83;0.60;;;3.30;99.90;;;;;;5128233;28;20233;-71
2023/02/04 04:35:58;;;;;;;1.07;0.80;;;3.30;99.90;;;;;;5128823;28;20300;-71
2023/02/04 04:38:25;;;;;;;1.30;0.77;;;3.30;99.90;;;;;;5128423;28;20325;-71
2023/02/04 04:40:53;;;;;;;0.83;0.50;;;3.30;99.90;;;;;;5142464;27;20298;-71
2023/02/04 04:43:20;;;;;;;1.23;0.67;;;3.30;99.90;;;;;;5124475;27;20201;-71
2023/02/04 04:45:47;;;;;;;0.93;0.83;;;3.30;99.90;;;;;;5128534;28;20209;-70
2023/02/04 04:48:14;;;;;;;3.07;1.10;;;3.30;99.90;;;;;;5128122;28;20245;-70
2023/02/04 04:50:41;;;;;;;1.37;0.70;;;3.10;99.90;;;;;;5128187;28;20255;-70
2023/02/04 04:53:10;;;;;;;1.87;0.90;;;3.10;99.90;;;;;;5128472;28;20288;-71
2023/02/04 04:55:37;;;;;;;1.10;0.90;;;3.20;99.90;;;;;;5128188;28;20209;-71
2023/02/04 04:58:05;;;;;;;1.10;0.77;;;3.10;99.90;;;;;;5128654;28;20328;-71
2023/02/04 05:00:32;;;;;;;0.50;0.50;;;3.10;99.90;;;;;;5112355;27;20216;-71
2023/02/04 05:02:59;;;;;;;1.50;0.70;;;3.10;99.90;;;;;;5108090;28;20202;-71
2023/02/04 05:05:26;;;;;;;0.73;0.63;;;3.10;99.90;;;;;;5107725;28;20292;-71
2023/02/04 05:07:53;;;;;;;1.33;0.70;;;3.10;99.90;;;;;;5107918;27;20271;-71
2023/02/04 05:10:20;;;;;;;1.30;0.70;;;3.20;99.90;;;;;;5107882;28;20221;-71
2023/02/04 05:12:47;;;;;;;1.13;0.80;;;3.10;99.90;;;;;;5107944;28;20288;-71
2023/02/04 05:15:16;;;;;;;3.73;0.73;;;3.10;99.90;;;;;;5128008;28;20216;-70
2023/02/04 05:17:42;;;;;;;1.77;0.60;;;3.10;99.90;;;;;;5118474;27;20210;-70
2023/02/04 05:20:10;;;;;;;0.73;0.60;;;3.10;99.90;;;;;;5111399;28;20330;-70
2023/02/04 05:22:37;;;;;;;1.53;0.67;;;3.10;99.90;;;;;;5110626;28;20296;-70
2023/02/04 05:25:04;;;;;;;1.33;0.50;;;3.10;99.90;;;;;;5111181;27;20222;-70
2023/02/04 05:27:31;;;;;;;1.90;0.60;;;3.10;99.90;;;;;;5111137;28;20293;-70
2023/02/04 05:29:58;;;;;;;0.97;0.70;;;3.10;99.90;;;;;;5110678;28;20293;-70
2023/02/04 05:32:26;;;;;;;2.77;1.00;;;3.00;99.90;;;;;;5110632;28;20679;-70
2023/02/04 05:34:53;;;;;;;1.93;0.80;;;3.00;99.90;;;;;;5128389;27;20277;-70
2023/02/04 05:37:20;;;;;;;0.70;0.70;;;3.00;99.90;;;;;;5131579;27;20206;-70
2023/02/04 05:39:47;;;;;;;2.10;0.67;;;3.00;99.90;;;;;;5135508;27;20323;-70
2023/02/04 05:42:14;;;;;;;1.17;0.60;;;2.90;99.90;;;;;;5133799;27;20198;-70
2023/02/04 05:44:41;;;;;;;1.17;1.00;;;2.90;99.90;;;;;;5110353;28;20642;-70
2023/02/04 05:47:07;;;;;;;0.90;0.50;;;2.90;99.90;;;;;;5110805;28;21106;-70
2023/02/04 05:49:36;;;;;;;0.87;0.80;;;2.90;99.90;;;;;;5110663;28;20751;-70
2023/02/04 05:52:03;;;;;;;1.37;0.53;;;2.80;99.90;;;;;;5110873;28;20290;-70
2023/02/04 05:54:29;;;;;;;0.83;0.70;;;2.80;99.90;;;;;;5123967;27;20201;-70
2023/02/04 05:56:56;;;;;;;1.50;0.60;;;2.80;99.90;;;;;;5131005;27;20210;-70
2023/02/04 05:59:23;;;;;;;1.83;1.00;;;2.80;99.90;;;;;;5130748;27;20685;-71
2023/02/04 06:01:50;;;;;;;2.20;0.60;;;2.80;99.90;;;;;;5130990;27;20304;-70
2023/02/04 06:04:17;;;;;;;0.97;0.60;;;2.80;99.90;;;;;;5119311;27;20297;-70
2023/02/04 06:06:45;;;;;;;1.50;0.90;;;2.80;99.90;;;;;;5110134;28;20647;-70
2023/02/04 06:09:13;;;;;;;0.87;0.70;;;2.80;99.90;;;;;;5110449;28;20319;-70
2023/02/04 06:11:40;;;;;;;3.27;1.07;;;2.70;99.90;;;;;;5110375;28;20202;-70
2023/02/04 06:14:07;;;;;;;1.27;1.10;;;2.70;99.90;;;;;;5110056;28;20740;-70
2023/02/04 06:16:34;;;;;;;2.43;1.23;;;2.70;99.90;;;;;;5112649;27;20206;-70
2023/02/04 06:19:00;;;;;;;0.90;0.70;;;2.70;99.90;;;;;;5130794;27;20264;-70
2023/02/04 06:21:27;;;;;;;1.60;1.00;;;2.60;99.90;;;;;;5130704;27;20325;-70
2023/02/04 06:23:56;;;;;;;0.97;0.70;;;2.60;99.90;;;;;;5130443;27;20190;-70
2023/02/04 06:26:23;;;;;;;1.47;0.80;;;2.50;99.90;;;;;;5130447;27;20304;-69
2023/02/04 06:28:49;;;;;;;1.60;0.80;;;2.50;99.90;;;;;;5123152;27;20190;-70
2023/02/04 06:31:16;;;;;;;1.67;1.00;;;2.50;99.90;;;;;;5113484;27;20287;-70
2023/02/04 06:33:43;;;;;;;1.40;0.60;;;2.60;99.90;;;;;;5109749;28;20226;-70
2023/02/04 06:36:10;;;;;;;1.30;0.70;;;2.70;99.90;;;;;;5109658;28;20198;-70
2023/02/04 06:38:37;;;;;;;1.27;0.77;;;2.70;99.90;;;;;;5109279;28;20267;-70
2023/02/04 06:41:06;;;;;;;0.70;0.70;;;2.80;99.90;;;;;;5141047;27;20292;-69
2023/02/04 06:43:32;;;;;;;1.13;0.70;;;2.70;99.90;;;;;;5117696;27;20281;-70
2023/02/04 06:45:59;;;;;;;1.37;0.83;;;2.70;99.90;;;;;;5129725;27;20207;-69
2023/02/04 06:48:26;;;;;;;0.97;0.77;;;2.70;99.90;;;;;;5129881;27;20305;-69
2023/02/04 06:50:56;;;;;;;3.20;1.20;;;2.60;99.90;;;;;;5129742;27;20682;-69
2023/02/04 06:53:23;;;;;;;0.70;0.70;;;2.60;99.90;;;;;;5121323;27;20210;-69
2023/02/04 06:55:51;;;;;;;2.97;0.90;;;2.60;99.90;;;;;;5109237;28;20241;-69
2023/02/04 06:58:19;;;;;;;1.57;0.90;;;2.60;99.90;;;;;;5108777;28;20266;-69
2023/02/04 07:00:46;;;;;;;1.53;0.90;;;2.50;99.90;;;;;;5109154;28;20248;-69
2023/02/04 07:03:16;;;;;;;1.50;1.10;;;2.50;99.90;;;;;;5109030;28;20686;-69
2023/02/04 07:05:43;;;;;;;1.87;0.90;;;2.40;99.90;;;;;;5109345;28;20202;-71
2023/02/04 07:08:10;;;;;;;1.67;1.00;;;2.40;99.90;;;;;;5109473;28;20220;-70
2023/02/04 07:10:36;;;;;;;1.83;1.30;;;2.30;99.90;;;;;;5132642;27;20295;-70
2023/02/04 07:13:03;;;;;;;1.73;1.17;;;2.30;99.90;;;;;;5150165;27;20204;-70
2023/02/04 07:15:32;;;;;;;2.10;1.30;;;2.30;99.90;;;;;;5129199;27;20206;-71
2023/02/04 07:17:59;;;;;;;1.83;1.03;;;2.20;99.90;;;;;;5114503;27;20286;-71
2023/02/04 07:20:25;;;;;;;2.30;0.90;;;2.30;99.90;;;;;;5108833;28;20233;-71
2023/02/04 07:22:52;;;;;;;0.80;0.80;;;2.20;99.90;;;;;;5108735;28;20296;-71
2023/02/04 07:25:19;;;;;;;2.03;1.37;;;2.20;99.90;;;;;;5108820;28;20627;-70
2023/02/04 07:27:46;;;;;;;1.40;0.90;;;2.20;99.90;;;;;;5108611;28;20301;-70
2023/02/04 07:30:14;;;;;;;2.63;1.10;;;2.20;99.90;;;;;;5108409;28;20293;-70
2023/02/04 07:32:42;;;;;;;0.90;0.90;;;2.10;99.90;;;;;;5108782;28;20210;-70
2023/02/04 07:35:10;;;;;;;4.37;1.30;;;2.30;99.90;;;;;;5108816;27;20288;-71
2023/02/04 07:37:37;;;;;;;1.83;1.07;;;2.30;99.90;;;;;;5108570;28;20266;-71
2023/02/04 07:40:04;;;;;;;1.20;1.10;;;2.40;99.90;;;;;;5122348;27;20319;-71
2023/02/04 07:42:31;;;;;;;1.70;1.10;;;2.40;99.90;;;;;;5134189;27;20290;-71
2023/02/04 07:44:58;;;;;;;2.37;0.80;;;2.40;99.90;;;;;;5108557;28;20293;-71
2023/02/04 07:47:25;;;;;;;1.40;1.07;;;2.50;99.90;;;;;;5108750;28;20297;-71
2023/02/04 07:49:55;;;;;;;1.40;1.00;;;2.50;99.90;;;;;;5108723;27;20217;-71
2023/02/04 07:52:22;;;;;;;1.27;1.03;;;2.60;99.90;;;;;;5108696;28;20194;-70
2023/02/04 07:54:51;;;;;;;2.30;1.13;;;2.60;99.90;;;;;;5108211;28;20202;-70
2023/02/04 07:57:17;;;;;;;2.07;1.00;;;2.70;99.90;;;;;;5118133;27;20289;-70
2023/02/04 07:59:44;;;;;;;3.17;1.20;;;2.80;99.90;;;;;;5128231;27;20248;-70
2023/02/04 08:02:11;;;;;;;1.40;1.30;;;2.80;99.90;;;;;;5125591;27;20666;-70
2023/02/04 08:04:39;;;;;;;1.00;1.00;;;2.90;99.90;;;;;;5107942;28;20206;-73
2023/02/04 08:07:07;;;;;;;3.70;1.40;;;3.00;99.90;;;;;;5108148;28;20210;-70
2023/02/04 08:09:34;;;;;;;3.23;1.30;;;3.10;99.90;;;;;;5107870;28;20213;-70
2023/02/04 08:12:01;;;;;;;1.73;1.40;;;3.10;99.90;;;;;;5108326;28;20218;-70
2023/02/04 08:14:28;;;;;;;2.27;1.40;;;3.10;99.90;;;;;;5107365;28;20301;-70
2023/02/04 08:16:54;;;;;;;2.77;1.40;;;3.10;99.90;;;;;;5111454;27;20305;-70
2023/02/04 08:19:21;;;;;;;2.43;1.43;;;3.20;99.90;;;;;;5126529;27;20734;-69
2023/02/04 08:21:48;;;;;;;3.93;1.53;;;3.20;99.90;;;;;;5122933;27;20316;-70
2023/02/04 08:24:17;;;;;;;2.27;1.27;;;3.20;99.90;;;;;;5105783;28;20304;-69
2023/02/04 08:26:44;;;;;;;2.63;1.20;;;3.20;99.90;;;;;;5110191;28;20269;-70
2023/02/04 08:29:11;;;;;;;1.60;1.30;;;3.30;99.90;;;;;;5110343;28;20752;-70
2023/02/04 08:31:38;;;;;;;1.27;1.17;;;3.40;99.90;;;;;;5106856;28;20277;-70
2023/02/04 08:34:06;;;;;;;1.97;0.97;;;3.40;99.90;;;;;;5106356;28;20202;-70
2023/02/04 08:36:33;;;;;;;1.33;1.03;;;3.50;99.90;;;;;;5106282;28;20285;-71
2023/02/04 08:39:00;;;;;;;2.23;1.00;;;3.60;99.90;;;;;;5105559;28;20639;-70
2023/02/04 08:41:28;;;;;;;1.20;1.10;;;3.60;99.90;;;;;;5138871;27;20320;-70
2023/02/04 08:43:55;;;;;;;0.90;0.80;;;3.70;99.90;;;;;;5126858;27;20212;-70
2023/02/04 08:46:22;;;;;;;3.37;1.10;;;3.80;99.90;;;;;;5113704;27;20718;-70
2023/02/04 08:48:49;;;;;;;1.27;1.17;;;4.00;99.90;;;;;;5105863;28;20245;-70
2023/02/04 08:51:16;;;;;;;1.13;1.00;;;4.10;99.90;;;;;;5122155;27;20288;-70
2023/02/04 08:53:42;;;;;;;2.40;0.97;;;4.10;99.90;;;;;;5130322;27;20229;-70
2023/02/04 08:56:14;;;;;;;1.33;1.23;;;4.30;99.90;;;;;;5112380;27;20208;-70
2023/02/04 08:58:42;;;;;;;1.73;1.00;;;4.40;99.90;;;;;;5109474;28;20241;-70
2023/02/04 09:01:10;;;;;;;2.53;0.90;;;4.40;99.90;;;;;;5109258;28;20245;-70
2023/02/04 09:03:37;;;;;;;2.23;0.80;;;4.50;99.90;;;;;;5108937;28;20202;-71
2023/02/04 09:06:04;;;;;;;0.93;0.80;;;4.60;99.90;;;;;;5109528;28;20286;-70
2023/02/04 09:08:31;;;;;;;1.53;0.80;;;4.60;99.90;;;;;;5109217;28;20556;-70
2023/02/04 09:10:58;;;;;;;2.37;0.73;;;4.60;99.90;;;;;;5139635;27;20300;-70
2023/02/04 09:13:25;;;;;;;1.10;0.70;;;4.50;99.90;;;;;;5148897;27;20201;-70
2023/02/04 09:15:53;;;;;;;2.20;1.10;;;4.50;99.90;;;;;;5110217;27;20692;-71
2023/02/04 09:18:21;;;;;;;1.57;0.57;;;4.50;99.90;;;;;;5109767;28;20715;-70
2023/02/04 09:20:48;;;;;;;1.40;0.80;;;4.50;99.90;;;;;;5118086;27;21011;-71
2023/02/04 09:23:15;;;;;;;2.97;0.70;;;4.70;99.90;;;;;;5150379;27;20204;-70
2023/02/04 09:25:44;;;;;;;1.17;0.70;;;4.80;99.90;;;;;;5148969;27;20734;-70
2023/02/04 09:28:12;;;;;;;0.90;0.70;;;4.90;99.90;;;;;;5108952;28;20300;-70
2023/02/04 09:30:38;;;;;;;2.00;0.93;;;5.00;99.90;;;;;;5109114;28;20317;-70
2023/02/04 09:33:07;;;;;;;3.30;0.87;;;5.10;99.90;;;;;;5109472;28;20210;-70
2023/02/04 09:35:34;;;;;;;1.60;1.00;;;5.20;99.90;;;;;;5113152;27;20204;-70
2023/02/04 09:38:01;;;;;;;0.97;0.97;;;5.30;99.90;;;;;;5128392;27;20296;-70
2023/02/04 09:40:33;;;;;;;1.47;0.80;;;5.40;99.90;;;;;;5130432;27;20239;-70
2023/02/04 09:43:01;;;;;;;0.70;0.70;;;5.50;99.90;;;;;;5132490;27;20210;-70
2023/02/04 09:45:30;;;;;;;2.33;1.20;;;5.60;99.90;;;;;;5129154;27;20630;-70
2023/02/04 09:47:59;;;;;;;2.13;0.73;;;5.60;99.90;;;;;;5128923;27;20228;-70
2023/02/04 09:50:30;;;;;;;1.13;0.73;;;5.70;99.90;;;;;;5113462;27;20300;-69
2023/02/04 09:53:00;;;;;;;1.60;0.90;;;5.70;99.90;;;;;;5109160;28;20194;-71
2023/02/04 09:55:30;;;;;;;1.00;0.70;;;5.80;99.90;;;;;;5109208;28;20244;-70
2023/02/04 09:57:57;;;;;;;2.63;0.90;;;5.70;99.90;;;;;;5118371;27;20309;-70
2023/02/04 10:00:28;;;;;;;3.37;1.10;;;5.80;99.90;;;;;;5149864;27;20212;-70
2023/02/04 10:02:58;;;;;;;2.50;0.90;;;5.70;99.90;;;;;;5141941;27;20197;-70
2023/02/04 10:05:31;;;;;;;2.33;0.60;;;5.70;99.90;;;;;;5129562;27;20198;-70
2023/02/04 10:07:59;;;;;;;0.97;0.70;;;5.80;99.90;;;;;;5128971;27;20194;-71
2023/02/04 10:10:27;;;;;;;1.50;0.80;;;5.80;99.90;;;;;;5125737;27;20712;-71
2023/02/04 10:12:57;;;;;;;1.27;0.77;;;5.90;99.90;;;;;;5126877;27;20203;-71
2023/02/04 10:15:24;;;;;;;0.70;0.63;;;5.90;99.90;;;;;;5128195;27;20280;-71
2023/02/04 10:17:54;;;;;;;2.03;1.00;;;6.00;99.90;;;;;;5128404;27;20316;-71
2023/02/04 10:20:23;;;;;;;3.83;0.90;;;6.10;99.90;;;;;;5128701;27;20235;-71
2023/02/04 10:22:54;;;;;;;1.13;1.03;;;6.10;99.90;;;;;;5128394;27;20205;-71
2023/02/04 10:25:23;;;;;;;2.17;1.30;;;6.20;99.90;;;;;;5128533;27;20189;-71
2023/02/04 10:27:52;;;;;;;3.50;0.90;;;6.30;99.90;;;;;;5128210;27;20285;-71
2023/02/04 10:30:21;;;;;;;0.70;0.57;;;6.40;99.90;;;;;;5128352;27;20293;-70
2023/02/04 10:32:48;;;;;;;1.37;0.97;;;6.50;99.90;;;;;;5128899;27;20202;-70
2023/02/04 10:35:17;;;;;;;1.47;0.53;;;6.50;99.90;;;;;;5128962;27;20241;-71
2023/02/04 10:37:45;;;;;;;0.60;0.50;;;6.60;99.90;;;;;;5125658;27;20285;-71
2023/02/04 10:40:30;;;;;;;0.73;0.67;;;6.70;99.90;;;;;;5124754;27;20209;-73
2023/02/04 10:42:57;;;;;;;0.53;0.50;;;6.80;99.90;;;;;;5148770;27;20299;-73
2023/02/04 10:45:26;;;;;;;1.40;0.67;;;7.00;99.90;;;;;;5140854;27;20194;-71
2023/02/04 10:47:54;;;;;;;0.90;0.50;;;7.10;99.90;;;;;;5107962;28;20348;-71
2023/02/04 10:50:23;;;;;;;1.57;0.60;;;7.30;99.90;;;;;;5108206;28;20217;-71
2023/02/04 10:52:54;;;;;;;0.63;0.50;;;7.40;99.90;;;;;;5107729;28;20206;-71
2023/02/04 10:55:22;;;;;;;0.93;0.80;;;7.50;99.90;;;;;;5108102;28;20430;-71
2023/02/04 10:57:52;;;;;;;0.43;0.43;;;7.40;99.90;;;;;;5107929;28;20206;-71
2023/02/04 11:00:21;;;;;;;1.07;0.50;;;7.30;99.90;;;;;;5107972;28;21014;-71
2023/02/04 11:02:54;;;;;;;0.67;0.67;;;7.10;99.90;;;;;;5107436;27;20688;-70
2023/02/04 11:05:23;;;;;;;1.13;0.60;;;7.10;99.90;;;;;;5108229;28;20283;-70
2023/02/04 11:07:51;;;;;;;0.97;0.57;;;7.30;99.90;;;;;;5107344;28;20293;-71
2023/02/04 11:10:20;;;;;;;0.40;0.40;;;7.30;99.90;;;;;;5125732;27;20894;-71
2023/02/04 11:12:59;;;;;;;3.03;0.70;;;7.40;99.90;;;;;;5148793;27;20291;-70
2023/02/04 11:15:46;;;;;;;1.97;0.90;;;7.40;99.90;;;;;;5131320;27;20191;-70
2023/02/04 11:18:28;;;;;;;1.47;0.67;;;7.50;99.90;;;;;;5124459;27;20226;-71
2023/02/04 11:20:58;;;;;;;0.57;0.57;;;7.40;99.90;;;;;;5128208;27;20324;-75
2023/02/04 11:23:35;;;;;;;0.60;0.60;;;7.30;99.90;;;;;;5127572;27;20301;-72
2023/02/04 11:26:08;;;;;;;0.43;0.43;;;7.30;99.90;;;;;;5128036;27;20299;-72
2023/02/04 11:28:48;;;;;;;1.80;0.63;;;7.30;99.90;;;;;;5126598;27;20648;-72
2023/02/04 11:31:39;;;;;;;0.90;0.43;;;7.10;99.90;;;;;;5106709;28;20233;-72
2023/02/04 11:34:24;;;;;;;2.60;0.80;;;6.90;99.90;;;;;;5110767;27;20243;-72
2023/02/04 11:37:11;;;;;;;2.27;0.50;;;6.80;99.90;;;;;;5127466;27;21040;-71
2023/02/04 11:39:41;;;;;;;2.77;0.90;;;6.90;99.90;;;;;;5123328;27;20234;-71
2023/02/04 11:42:19;;;;;;;2.27;0.63;;;7.20;99.90;;;;;;5115178;27;20233;-72
2023/02/04 11:44:54;;;;;;;1.00;0.90;;;7.50;99.90;;;;;;5127106;27;20747;-72
2023/02/04 11:47:25;;;;;;;1.53;0.60;;;7.50;99.90;;;;;;5127928;27;20562;-70
2023/02/04 11:49:58;;;;;;;1.97;0.70;;;7.40;99.90;;;;;;5127758;27;20342;-70
2023/02/04 11:52:25;;;;;;;1.30;0.60;;;7.30;99.90;;;;;;5127346;27;20205;-72
2023/02/04 11:54:57;;;;;;;2.20;0.77;;;7.10;99.90;;;;;;5126785;27;20205;-72
2023/02/04 11:57:24;;;;;;;2.33;0.80;;;7.00;99.90;;;;;;5118203;27;20285;-71
2023/02/04 11:59:51;;;;;;;0.90;0.60;;;6.80;99.90;;;;;;5107161;28;20238;-71
2023/02/04 12:02:20;;;;;;;2.03;0.87;;;6.70;99.90;;;;;;5107433;28;20268;-71
2023/02/04 12:04:54;;;;;;;1.80;0.63;;;6.60;99.90;;;;;;5107703;28;20206;-71
2023/02/04 12:07:28;;;;;;;2.50;0.70;;;6.60;99.90;;;;;;5108523;28;20194;-71
2023/02/04 12:09:56;;;;;;;1.57;0.47;;;6.80;99.90;;;;;;5120048;27;20290;-72
2023/02/04 12:12:25;;;;;;;1.10;1.00;;;7.00;99.90;;;;;;5148569;27;20246;-71
2023/02/04 12:14:58;;;;;;;1.27;1.03;;;7.20;99.90;;;;;;5120657;27;20195;-71
2023/02/04 12:17:25;;;;;;;0.80;0.80;;;7.30;99.90;;;;;;5116261;27;20204;-71
2023/02/04 12:19:53;;;;;;;2.53;0.87;;;7.20;99.90;;;;;;5128043;27;20249;-72
2023/02/04 12:22:20;;;;;;;0.90;0.70;;;7.10;99.90;;;;;;5127950;27;20720;-71
2023/02/04 12:24:47;;;;;;;0.57;0.57;;;6.90;99.90;;;;;;5126984;28;20727;-71
2023/02/04 12:27:14;;;;;;;0.93;0.60;;;7.00;99.90;;;;;;5121966;27;20248;-71
2023/02/04 12:29:41;;;;;;;1.13;0.60;;;7.30;99.90;;;;;;5106725;28;20202;-71
2023/02/04 12:32:08;;;;;;;1.30;0.50;;;7.40;99.90;;;;;;5125115;27;20205;-71
2023/02/04 12:34:35;;;;;;;1.27;0.60;;;7.30;99.90;;;;;;5127144;28;20873;-71
2023/02/04 12:37:03;;;;;;;0.70;0.60;;;7.10;99.90;;;;;;5128197;28;20312;-71
2023/02/04 12:39:30;;;;;;;0.80;0.80;;;6.90;99.90;;;;;;5120530;27;20312;-71
2023/02/04 12:41:57;;;;;;;0.73;0.60;;;6.80;99.90;;;;;;5108024;28;20222;-71
2023/02/04 12:44:24;;;;;;;0.60;0.60;;;6.60;99.90;;;;;;5108080;28;20301;-71
2023/02/04 12:46:51;;;;;;;3.07;0.60;;;6.60;99.90;;;;;;5108012;28;20255;-71
2023/02/04 12:49:18;;;;;;;1.30;0.50;;;6.50;99.90;;;;;;5108304;28;20290;-71
2023/02/04 12:51:45;;;;;;;0.50;0.40;;;6.50;99.90;;;;;;5107660;28;20304;-71
2023/02/04 12:54:13;;;;;;;0.90;0.60;;;6.40;99.90;;;;;;5107512;28;20728;-71
2023/02/04 12:56:40;;;;;;;0.67;0.47;;;6.30;99.90;;;;;;5107515;28;20233;-72
2023/02/04 12:59:07;;;;;;;0.97;0.50;;;6.30;99.90;;;;;;5111963;28;20312;-71
2023/02/04 13:01:33;;;;;;;1.10;0.53;;;6.30;99.90;;;;;;5122995;28;20308;-71